createdAt,value
2023-04-17T00:01:19.456Z,49.06
2023-04-17T00:03:48.587Z,49.12
2023-04-17T00:06:16.497Z,49.01
2023-04-17T00:08:44.637Z,49.03
2023-04-17T00:11:12.811Z,49.24
2023-04-17T00:13:40.793Z,49.46
2023-04-17T00:16:10.757Z,49.82
2023-04-17T00:18:40.166Z,49.65
2023-04-17T00:21:08.097Z,50.13
2023-04-17T00:23:36.075Z,50.03
2023-04-17T00:26:04.122Z,49.96
2023-04-17T00:28:31.998Z,50.41
2023-04-17T00:30:59.843Z,50.57
2023-04-17T00:33:28.105Z,50.42
2023-04-17T00:35:57.286Z,50.93
2023-04-17T00:38:25.167Z,50.47
2023-04-17T00:40:53.450Z,51.37
2023-04-17T00:43:21.291Z,51.13
2023-04-17T00:45:49.544Z,50.82
2023-04-17T00:48:18.456Z,51.16
2023-04-17T00:50:46.873Z,51.55
2023-04-17T00:53:16.322Z,51.74
2023-04-17T00:55:45.895Z,51.60
2023-04-17T00:58:14.492Z,51.28
2023-04-17T01:00:42.398Z,51.98
2023-04-17T01:03:10.753Z,51.78
2023-04-17T01:05:38.787Z,51.94
2023-04-17T01:08:06.755Z,52.31
2023-04-17T01:10:36.250Z,52.25
2023-04-17T01:13:04.994Z,52.17
2023-04-17T01:15:32.881Z,52.33
2023-04-17T01:18:01.232Z,52.63
2023-04-17T01:20:31.267Z,53.11
2023-04-17T01:22:59.670Z,53.02
2023-04-17T01:25:29.651Z,53.34
2023-04-17T01:27:57.729Z,52.89
2023-04-17T01:30:25.831Z,53.49
2023-04-17T01:32:55.201Z,53.09
2023-04-17T01:35:23.342Z,53.87
2023-04-17T01:37:51.375Z,53.53
2023-04-17T01:40:19.606Z,53.28
2023-04-17T01:42:49.125Z,53.96
2023-04-17T01:45:17.188Z,53.62
2023-04-17T01:47:45.532Z,54.12
2023-04-17T01:50:14.207Z,53.98
2023-04-17T01:52:42.081Z,54.53
2023-04-17T01:55:11.032Z,53.81
2023-04-17T01:57:38.978Z,54.34
2023-04-17T02:00:10.960Z,54.46
2023-04-17T02:02:39.287Z,54.78
2023-04-17T02:05:08.123Z,54.72
2023-04-17T02:07:36.184Z,54.58
2023-04-17T02:10:04.584Z,54.64
2023-04-17T02:12:32.407Z,54.70
2023-04-17T02:15:01.392Z,55.06
2023-04-17T02:17:31.060Z,54.68
2023-04-17T02:19:58.936Z,54.67
2023-04-17T02:22:26.800Z,54.74
2023-04-17T02:24:54.791Z,54.90
2023-04-17T02:27:22.654Z,54.83
2023-04-17T02:29:50.667Z,54.89
2023-04-17T02:32:18.697Z,54.91
2023-04-17T02:34:47.981Z,55.06
2023-04-17T02:37:15.941Z,55.07
2023-04-17T02:39:44.187Z,55.22
2023-04-17T02:42:13.122Z,55.48
2023-04-17T02:44:41.504Z,55.39
2023-04-17T02:47:10.030Z,55.44
2023-04-17T02:49:37.854Z,55.35
2023-04-17T02:52:07.209Z,55.55
2023-04-17T02:54:35.341Z,55.73
2023-04-17T02:57:03.220Z,55.56
2023-04-17T02:59:31.111Z,55.73
2023-04-17T03:01:59.849Z,55.32
2023-04-17T03:04:28.737Z,55.77
2023-04-17T03:06:56.644Z,55.77
2023-04-17T03:09:26.243Z,56.07
2023-04-17T03:11:54.223Z,55.41
2023-04-17T03:14:22.084Z,55.70
2023-04-17T03:16:50.165Z,55.65
2023-04-17T03:19:18.087Z,56.31
2023-04-17T03:21:46.273Z,55.56
2023-04-17T03:24:14.314Z,55.58
2023-04-17T03:26:43.575Z,55.63
2023-04-17T03:29:11.767Z,56.19
2023-04-17T03:31:39.954Z,55.74
2023-04-17T03:34:07.808Z,56.07
2023-04-17T03:36:36.414Z,56.13
2023-04-17T03:39:04.500Z,56.34
2023-04-17T03:41:32.344Z,55.81
2023-04-17T03:44:01.712Z,56.50
2023-04-17T03:46:29.931Z,55.83
2023-04-17T03:48:57.780Z,56.52
2023-04-17T03:51:27.149Z,55.83
2023-04-17T03:53:55.221Z,56.08
2023-04-17T03:56:23.123Z,56.59
2023-04-17T03:58:51.100Z,56.35
2023-04-17T04:01:20.485Z,56.16
2023-04-17T04:03:48.439Z,56.20
2023-04-17T04:06:20.382Z,56.47
2023-04-17T04:08:48.478Z,56.23
2023-04-17T04:11:16.423Z,56.72
2023-04-17T04:13:44.385Z,56.53
2023-04-17T04:16:12.365Z,56.21
2023-04-17T04:18:41.551Z,56.53
2023-04-17T04:21:09.856Z,56.36
2023-04-17T04:23:41.434Z,56.50
2023-04-17T04:26:09.353Z,56.78
2023-04-17T04:28:38.219Z,56.92
2023-04-17T04:31:07.048Z,56.40
2023-04-17T04:33:35.346Z,56.51
2023-04-17T04:36:04.671Z,56.49
2023-04-17T04:38:33.140Z,56.66
2023-04-17T04:41:06.456Z,56.08
2023-04-17T04:43:35.653Z,56.17
2023-04-17T04:46:03.713Z,56.58
2023-04-17T04:48:31.650Z,56.46
2023-04-17T04:50:59.802Z,56.14
2023-04-17T04:53:29.383Z,56.12
2023-04-17T04:55:57.280Z,55.69
2023-04-17T04:58:25.489Z,55.59
2023-04-17T05:00:53.658Z,55.91
2023-04-17T05:03:22.669Z,55.65
2023-04-17T05:05:51.533Z,55.48
2023-04-17T05:08:20.404Z,54.88
2023-04-17T05:10:49.927Z,54.61
2023-04-17T05:13:18.058Z,54.99
2023-04-17T05:15:45.904Z,54.30
2023-04-17T05:18:13.815Z,54.17
2023-04-17T05:20:42.030Z,54.32
2023-04-17T05:23:09.924Z,53.75
2023-04-17T05:25:38.027Z,54.09
2023-04-17T05:28:07.584Z,53.64
2023-04-17T05:30:35.497Z,53.75
2023-04-17T05:33:03.473Z,53.34
2023-04-17T05:35:31.521Z,53.29
2023-04-17T05:37:59.385Z,53.09
2023-04-17T05:40:27.287Z,52.44
2023-04-17T05:42:55.404Z,52.51
2023-04-17T05:45:25.760Z,52.53
2023-04-17T05:47:53.928Z,52.29
2023-04-17T05:50:22.079Z,51.44
2023-04-17T05:52:50.069Z,51.72
2023-04-17T05:55:20.140Z,51.30
2023-04-17T05:57:51.439Z,50.99
2023-04-17T06:00:22.763Z,50.68
2023-04-17T06:02:53.522Z,50.24
2023-04-17T06:05:21.897Z,50.05
2023-04-17T06:07:50.352Z,49.92
2023-04-17T06:10:18.681Z,49.43
2023-04-17T06:12:46.751Z,49.03
2023-04-17T06:15:14.598Z,48.98
2023-04-17T06:17:42.678Z,48.90
2023-04-17T06:20:12.581Z,48.14
2023-04-17T06:22:44.385Z,48.35
2023-04-17T06:25:12.283Z,48.08
2023-04-17T06:27:40.497Z,48.16
2023-04-17T06:30:10.364Z,47.91
2023-04-17T06:32:42.754Z,47.10
2023-04-17T06:35:12.652Z,47.34
2023-04-17T06:37:40.573Z,46.95
2023-04-17T06:40:09.764Z,47.17
2023-04-17T06:42:37.795Z,46.99
2023-04-17T06:45:06.350Z,46.75
2023-04-17T06:47:34.280Z,46.60
2023-04-17T06:50:02.457Z,46.17
2023-04-17T06:52:31.872Z,45.75
2023-04-17T06:55:00.182Z,46.08
2023-04-17T06:57:28.198Z,46.26
2023-04-17T06:59:57.716Z,46.57
2023-04-17T07:02:25.787Z,47.30
2023-04-17T07:04:55.122Z,47.19
2023-04-17T07:07:23.323Z,46.70
2023-04-17T07:09:52.586Z,46.23
2023-04-17T07:12:20.826Z,45.24
2023-04-17T07:14:48.892Z,44.33
2023-04-17T07:17:16.792Z,43.09
2023-04-17T07:19:44.815Z,41.93
2023-04-17T07:22:12.738Z,40.96
2023-04-17T07:24:40.739Z,40.25
2023-04-17T07:27:10.098Z,39.23
2023-04-17T07:29:38.139Z,38.18
2023-04-17T07:32:06.966Z,37.24
2023-04-17T07:34:35.315Z,37.13
2023-04-17T07:37:03.306Z,36.92
2023-04-17T07:39:31.789Z,35.93
2023-04-17T07:41:59.935Z,35.77
2023-04-17T07:44:29.470Z,35.03
2023-04-17T07:46:57.612Z,34.71
2023-04-17T07:49:25.729Z,34.68
2023-04-17T07:51:53.976Z,34.03
2023-04-17T07:54:21.950Z,33.72
2023-04-17T07:56:51.176Z,33.25
2023-04-17T07:59:19.169Z,32.76
2023-04-17T08:01:52.824Z,32.35
2023-04-17T08:04:21.285Z,32.27
2023-04-17T08:06:49.524Z,31.95
2023-04-17T08:09:17.517Z,31.72
2023-04-17T08:11:56.244Z,31.40
2023-04-17T08:14:25.563Z,31.20
2023-04-17T08:16:55.098Z,30.66
2023-04-17T08:19:22.977Z,30.38
2023-04-17T08:21:51.948Z,30.34
2023-04-17T08:24:20.219Z,29.73
2023-04-17T08:26:49.508Z,29.17
2023-04-17T08:29:17.584Z,29.23
2023-04-17T08:31:45.466Z,28.62
2023-04-17T08:34:15.740Z,28.45
2023-04-17T08:36:43.974Z,28.59
2023-04-17T08:39:12.428Z,28.32
2023-04-17T08:41:47.552Z,27.89
2023-04-17T08:44:20.241Z,27.59
2023-04-17T08:46:49.023Z,27.39
2023-04-17T08:49:18.368Z,27.08
2023-04-17T08:51:47.259Z,27.04
2023-04-17T08:54:15.338Z,26.88
2023-04-17T08:56:43.381Z,26.55
2023-04-17T08:59:11.467Z,26.14
2023-04-17T09:01:39.594Z,26.02
2023-04-17T09:04:07.824Z,25.89
2023-04-17T09:06:54.303Z,25.33
2023-04-17T09:09:22.434Z,25.79
2023-04-17T09:12:09.664Z,25.02
2023-04-17T09:14:37.582Z,25.30
2023-04-17T09:17:05.608Z,25.02
2023-04-17T09:19:35.837Z,25.01
2023-04-17T09:22:21.718Z,24.79
2023-04-17T09:24:49.641Z,24.64
2023-04-17T09:27:25.081Z,24.50
2023-04-17T09:30:04.837Z,24.37
2023-04-17T09:32:34.474Z,24.56
2023-04-17T09:35:04.904Z,24.58
2023-04-17T09:37:52.145Z,24.03
2023-04-17T09:40:21.422Z,24.15
2023-04-17T09:42:59.646Z,23.69
2023-04-17T09:45:33.136Z,23.93
2023-04-17T09:48:04.192Z,23.94
2023-04-17T09:50:34.381Z,23.73
2023-04-17T09:53:06.213Z,23.27
2023-04-17T09:55:35.919Z,23.27
2023-04-17T09:58:05.192Z,22.98
2023-04-17T10:00:33.298Z,23.06
2023-04-17T10:03:01.433Z,22.79
2023-04-17T10:05:33.806Z,22.65
2023-04-17T10:08:02.366Z,22.83
2023-04-17T10:10:34.102Z,22.66
2023-04-17T10:13:05.586Z,22.46
2023-04-17T10:15:34.820Z,22.60
2023-04-17T10:18:24.942Z,22.17
2023-04-17T10:20:55.311Z,22.08
2023-04-17T10:23:31.531Z,21.67
2023-04-17T10:26:39.417Z,21.62
2023-04-17T10:29:09.243Z,22.16
2023-04-17T10:32:17.498Z,21.73
2023-04-17T10:34:46.678Z,22.14
2023-04-17T10:37:16.221Z,22.28
2023-04-17T10:39:53.000Z,21.92
2023-04-17T10:42:21.982Z,21.98
2023-04-17T10:44:56.865Z,21.71
2023-04-17T10:47:33.587Z,22.02
2023-04-17T10:50:04.431Z,22.14
2023-04-17T10:52:44.609Z,21.83
2023-04-17T10:55:17.546Z,22.25
2023-04-17T10:58:00.749Z,22.18
2023-04-17T11:00:33.286Z,21.68
2023-04-17T11:03:03.687Z,21.97
2023-04-17T11:05:32.420Z,21.85
2023-04-17T11:08:00.794Z,21.97
2023-04-17T11:10:30.007Z,21.85
2023-04-17T11:12:57.835Z,21.78
2023-04-17T11:15:31.570Z,21.95
2023-04-17T11:18:00.430Z,21.61
2023-04-17T11:20:30.837Z,21.05
2023-04-17T11:23:02.441Z,20.96
2023-04-17T11:25:33.693Z,21.10
2023-04-17T11:28:03.099Z,21.12
2023-04-17T11:30:34.563Z,21.28
2023-04-17T11:33:04.443Z,21.65
2023-04-17T11:35:34.078Z,21.55
2023-04-17T11:38:14.192Z,21.57
2023-04-17T11:40:46.745Z,21.46
2023-04-17T11:43:15.126Z,21.63
2023-04-17T11:45:47.317Z,21.19
2023-04-17T11:48:16.585Z,21.35
2023-04-17T11:50:45.550Z,20.79
2023-04-17T11:53:18.402Z,20.78
2023-04-17T11:55:48.564Z,20.82
2023-04-17T11:58:16.818Z,20.89
2023-04-17T12:00:46.422Z,20.96
2023-04-17T12:03:35.325Z,20.46
2023-04-17T12:06:05.355Z,20.72
2023-04-17T12:08:43.680Z,20.40
2023-04-17T12:11:19.476Z,20.15
2023-04-17T12:13:48.799Z,19.82
2023-04-17T12:16:18.286Z,19.68
2023-04-17T12:18:46.787Z,19.32
2023-04-17T12:21:15.160Z,18.82
2023-04-17T12:23:43.375Z,18.65
2023-04-17T12:26:11.315Z,18.47
2023-04-17T12:28:39.493Z,18.17
2023-04-17T12:31:07.759Z,17.79
2023-04-17T12:33:36.987Z,17.83
2023-04-17T12:36:06.483Z,17.67
2023-04-17T12:38:34.486Z,17.71
2023-04-17T12:41:02.260Z,17.73
2023-04-17T12:43:30.122Z,16.72
2023-04-17T12:45:58.683Z,17.17
2023-04-17T12:48:26.674Z,17.25
2023-04-17T12:50:56.096Z,16.81
2023-04-17T12:53:24.310Z,16.41
2023-04-17T12:55:52.186Z,16.33
2023-04-17T12:58:20.573Z,16.45
2023-04-17T13:00:48.782Z,16.20
2023-04-17T13:03:16.833Z,15.90
2023-04-17T13:05:45.218Z,15.96
2023-04-17T13:08:16.455Z,15.92
2023-04-17T13:10:44.282Z,16.45
2023-04-17T13:13:12.268Z,15.99
2023-04-17T13:15:40.259Z,15.87
2023-04-17T13:18:08.266Z,16.07
2023-04-17T13:20:36.437Z,16.06
2023-04-17T13:23:04.426Z,16.17
2023-04-17T13:25:33.910Z,15.70
2023-04-17T13:28:01.909Z,15.49
2023-04-17T13:30:29.873Z,15.33
2023-04-17T13:32:57.680Z,15.39
2023-04-17T13:35:25.655Z,15.02
2023-04-17T13:37:55.055Z,15.35
2023-04-17T13:40:22.938Z,15.44
2023-04-17T13:42:52.638Z,15.72
2023-04-17T13:45:20.674Z,15.67
2023-04-17T13:47:48.564Z,15.17
2023-04-17T13:50:16.514Z,15.00
2023-04-17T13:52:44.549Z,14.64
2023-04-17T13:55:14.814Z,14.87
2023-04-17T13:57:42.808Z,14.86
2023-04-17T14:00:13.732Z,14.52
2023-04-17T14:02:42.700Z,14.62
2023-04-17T14:05:13.547Z,14.64
2023-04-17T14:07:43.779Z,14.70
2023-04-17T14:10:12.236Z,15.07
2023-04-17T14:12:40.145Z,15.28
2023-04-17T14:15:09.359Z,15.05
2023-04-17T14:17:42.961Z,14.87
2023-04-17T14:20:13.204Z,14.69
2023-04-17T14:22:41.024Z,14.54
2023-04-17T14:25:12.459Z,14.15
2023-04-17T14:27:40.609Z,14.12
2023-04-17T14:30:09.661Z,14.27
2023-04-17T14:32:39.676Z,14.14
2023-04-17T14:35:08.647Z,14.01
2023-04-17T14:37:36.629Z,13.96
2023-04-17T14:40:05.182Z,14.08
2023-04-17T14:42:40.810Z,13.97
2023-04-17T14:45:19.186Z,14.46
2023-04-17T14:47:48.649Z,14.47
2023-04-17T14:50:16.556Z,14.19
2023-04-17T14:52:44.491Z,14.08
2023-04-17T14:55:13.337Z,14.43
2023-04-17T14:57:41.411Z,14.13
2023-04-17T15:00:10.261Z,14.68
2023-04-17T15:02:39.579Z,15.06
2023-04-17T15:05:10.492Z,14.74
2023-04-17T15:07:38.286Z,15.08
2023-04-17T15:10:07.019Z,14.99
2023-04-17T15:12:34.969Z,15.53
2023-04-17T15:15:03.199Z,15.89
2023-04-17T15:17:31.340Z,15.93
2023-04-17T15:20:00.850Z,15.83
2023-04-17T15:22:30.131Z,15.88
2023-04-17T15:24:58.142Z,15.57
2023-04-17T15:27:26.169Z,15.51
2023-04-17T15:29:54.068Z,15.75
2023-04-17T15:32:22.124Z,15.22
2023-04-17T15:34:50.105Z,15.65
2023-04-17T15:37:17.982Z,15.83
2023-04-17T15:39:47.417Z,15.99
2023-04-17T15:42:15.543Z,16.30
2023-04-17T15:44:43.729Z,16.26
2023-04-17T15:47:11.669Z,16.35
2023-04-17T15:49:39.695Z,16.53
2023-04-17T15:52:08.355Z,16.47
2023-04-17T15:54:36.609Z,16.77
2023-04-17T15:57:06.038Z,16.97
2023-04-17T15:59:34.114Z,17.23
2023-04-17T16:02:04.079Z,17.34
2023-04-17T16:04:32.379Z,17.22
2023-04-17T16:07:00.461Z,17.41
2023-04-17T16:09:28.419Z,17.60
2023-04-17T16:11:57.197Z,18.11
2023-04-17T16:14:27.957Z,17.98
2023-04-17T16:16:55.897Z,18.02
2023-04-17T16:19:23.900Z,18.09
2023-04-17T16:21:51.740Z,18.32
2023-04-17T16:24:19.689Z,18.68
2023-04-17T16:26:47.700Z,18.51
2023-04-17T16:29:15.616Z,18.55
2023-04-17T16:31:45.120Z,18.71
2023-04-17T16:34:14.437Z,18.72
2023-04-17T16:36:45.295Z,19.13
2023-04-17T16:39:17.542Z,19.37
2023-04-17T16:41:46.932Z,19.62
2023-04-17T16:44:14.871Z,19.85
2023-04-17T16:47:09.471Z,19.86
2023-04-17T16:49:32.382Z,20.04
2023-04-17T16:52:00.552Z,20.01
2023-04-17T16:54:28.482Z,20.11
2023-04-17T16:56:56.470Z,20.30
2023-04-17T16:59:24.798Z,20.54
2023-04-17T17:01:54.074Z,20.95
2023-04-17T17:04:23.460Z,21.07
2023-04-17T17:06:52.698Z,21.36
2023-04-17T17:09:20.704Z,21.40
2023-04-17T17:11:49.058Z,21.62
2023-04-17T17:14:20.017Z,21.87
2023-04-17T17:16:47.943Z,22.02
2023-04-17T17:19:17.173Z,22.38
2023-04-17T17:21:45.215Z,22.63
2023-04-17T17:24:13.073Z,23.13
2023-04-17T17:26:40.978Z,23.46
2023-04-17T17:29:09.365Z,23.50
2023-04-17T17:31:37.269Z,23.87
2023-04-17T17:34:22.617Z,24.55
2023-04-17T17:36:54.895Z,24.88
2023-04-17T17:39:22.880Z,25.01
2023-04-17T17:41:50.795Z,25.35
2023-04-17T17:44:19.023Z,25.54
2023-04-17T17:46:47.092Z,25.95
2023-04-17T17:49:14.990Z,26.15
2023-04-17T17:51:45.942Z,26.68
2023-04-17T17:54:15.295Z,26.72
2023-04-17T17:56:44.333Z,27.11
2023-04-17T17:59:12.415Z,27.64
2023-04-17T18:01:40.581Z,28.14
2023-04-17T18:04:08.987Z,28.43
2023-04-17T18:06:37.251Z,28.57
2023-04-17T18:09:06.008Z,28.92
2023-04-17T18:11:35.322Z,29.13
2023-04-17T18:14:03.390Z,29.68
2023-04-17T18:16:32.724Z,29.82
2023-04-17T18:19:03.603Z,30.12
2023-04-17T18:24:00.320Z,31.09
2023-04-17T18:26:28.488Z,31.79
2023-04-17T18:28:57.812Z,32.39
2023-04-17T18:31:26.742Z,32.75
2023-04-17T18:33:55.086Z,33.30
2023-04-17T18:36:23.088Z,33.62
2023-04-17T18:38:51.049Z,34.04
2023-04-17T18:41:19.024Z,34.29
2023-04-17T18:43:46.947Z,34.80
2023-04-17T18:46:18.248Z,35.45
2023-04-17T18:48:46.320Z,35.29
2023-04-17T18:51:15.727Z,36.02
2023-04-17T18:53:43.679Z,36.18
2023-04-17T18:56:13.797Z,36.83
2023-04-17T18:58:42.041Z,37.13
2023-04-17T19:01:10.726Z,37.23
2023-04-17T19:03:41.911Z,37.64
2023-04-17T19:06:14.439Z,37.94
2023-04-17T19:08:42.815Z,38.45
2023-04-17T19:11:10.656Z,38.65
2023-04-17T19:13:38.824Z,38.92
2023-04-17T19:16:07.032Z,39.46
2023-04-17T19:18:34.976Z,39.47
2023-04-17T19:21:07.049Z,40.01
2023-04-17T19:23:35.050Z,40.10
2023-04-17T19:26:02.916Z,40.28
2023-04-17T19:28:31.212Z,40.38
2023-04-17T19:31:00.897Z,40.64
2023-04-17T19:33:28.810Z,40.83
2023-04-17T19:35:58.403Z,40.89
2023-04-17T19:38:27.995Z,41.58
2023-04-17T19:41:14.866Z,42.28
2023-04-17T19:43:43.152Z,41.50
2023-04-17T19:46:11.296Z,42.04
2023-04-17T19:48:39.271Z,41.84
2023-04-17T19:51:07.759Z,42.16
2023-04-17T19:53:38.498Z,42.29
2023-04-17T19:56:08.613Z,42.35
2023-04-17T19:58:37.563Z,42.89
2023-04-17T20:01:06.741Z,43.07
2023-04-17T20:03:35.769Z,42.94
2023-04-17T20:06:04.441Z,43.08
2023-04-17T20:08:32.498Z,43.54
2023-04-17T20:11:01.977Z,44.26
2023-04-17T20:13:30.067Z,43.97
2023-04-17T20:15:57.956Z,44.48
2023-04-17T20:18:26.143Z,44.60
2023-04-17T20:20:54.328Z,44.44
2023-04-17T20:23:22.421Z,45.01
2023-04-17T20:25:50.677Z,44.88
2023-04-17T20:28:20.132Z,44.87
2023-04-17T20:30:48.245Z,44.90
2023-04-17T20:33:16.310Z,45.37
2023-04-17T20:35:44.324Z,45.11
2023-04-17T20:38:12.227Z,45.35
2023-04-17T20:40:40.244Z,45.52
2023-04-17T20:43:08.416Z,45.74
2023-04-17T20:45:37.706Z,46.18
2023-04-17T20:48:06.983Z,46.51
2023-04-17T20:50:35.198Z,46.50
2023-04-17T20:53:05.543Z,46.10
2023-04-17T20:55:36.249Z,47.21
2023-04-17T20:58:04.311Z,47.07
2023-04-17T21:00:32.548Z,47.45
2023-04-17T21:03:02.879Z,47.54
2023-04-17T21:05:31.012Z,47.49
2023-04-17T21:07:58.917Z,48.01
2023-04-17T21:10:26.990Z,48.15
2023-04-17T21:12:56.039Z,48.42
2023-04-17T21:15:23.923Z,47.94
2023-04-17T21:17:51.972Z,48.22
2023-04-17T21:20:22.881Z,48.98
2023-04-17T21:22:52.793Z,48.66
2023-04-17T21:25:21.726Z,48.28
2023-04-17T21:27:49.606Z,48.70
2023-04-17T21:30:17.795Z,48.58
2023-04-17T21:32:47.522Z,48.97
2023-04-17T21:35:15.565Z,49.04
2023-04-17T21:37:44.804Z,49.89
2023-04-17T21:40:15.966Z,49.65
2023-04-17T21:42:45.999Z,49.87
2023-04-17T21:45:16.426Z,49.72
2023-04-17T21:47:44.379Z,50.20
2023-04-17T21:50:12.396Z,49.88
2023-04-17T21:52:40.670Z,50.41
2023-04-17T21:55:10.467Z,50.61
2023-04-17T21:57:38.848Z,50.65
2023-04-17T22:00:11.623Z,50.37
2023-04-17T22:02:39.761Z,50.75
2023-04-17T22:05:08.214Z,50.55
2023-04-17T22:07:43.975Z,51.42
2023-04-17T22:10:21.052Z,51.58
2023-04-17T22:12:49.190Z,51.26
2023-04-17T22:15:17.227Z,51.69
2023-04-17T22:17:45.437Z,51.71
2023-04-17T22:20:14.112Z,52.10
2023-04-17T22:22:42.025Z,51.79
2023-04-17T22:25:10.528Z,51.96
2023-04-17T22:27:39.929Z,52.14
2023-04-17T22:30:08.678Z,52.33
2023-04-17T22:32:36.634Z,52.20
2023-04-17T22:35:04.826Z,52.37
2023-04-17T22:37:32.856Z,52.60
2023-04-17T22:40:01.052Z,53.08
2023-04-17T22:42:29.036Z,52.94
2023-04-17T22:44:58.537Z,53.01
2023-04-17T22:47:26.580Z,53.27
2023-04-17T22:49:55.351Z,53.09
2023-04-17T22:52:23.213Z,53.44
2023-04-17T22:54:51.165Z,53.29
2023-04-17T22:57:19.198Z,53.57
2023-04-17T22:59:47.073Z,53.93
2023-04-17T23:02:16.736Z,53.92
2023-04-17T23:04:47.210Z,54.09
2023-04-17T23:07:15.120Z,54.12
2023-04-17T23:09:43.275Z,53.99
2023-04-17T23:12:11.374Z,54.39
2023-04-17T23:14:41.723Z,54.64
2023-04-17T23:17:11.517Z,54.25
2023-04-17T23:19:41.202Z,54.67
2023-04-17T23:22:09.196Z,54.67
2023-04-17T23:24:37.456Z,54.91
2023-04-17T23:27:05.644Z,55.14
2023-04-17T23:29:33.555Z,55.12
2023-04-17T23:32:01.548Z,55.13
2023-04-17T23:34:29.544Z,55.48
2023-04-17T23:36:58.785Z,55.63
2023-04-17T23:39:26.875Z,55.28
2023-04-17T23:41:54.936Z,55.22
2023-04-17T23:44:22.882Z,55.51
2023-04-17T23:46:51.280Z,55.85
2023-04-17T23:49:19.541Z,55.64
2023-04-17T23:51:47.423Z,55.72
2023-04-17T23:54:17.420Z,55.69
2023-04-17T23:56:45.412Z,56.09
2023-04-17T23:59:13.537Z,56.07
